sensor_id;sensor_type;location;lat;lon;timestamp;temperature;humidity
39345;DHT22;25061;51.954;6.996;2022-07-23T00:00:35;15.90;99.90
39345;DHT22;25061;51.954;6.996;2022-07-23T00:03:00;16.00;99.90
39345;DHT22;25061;51.954;6.996;2022-07-23T00:05:26;15.80;99.90
39345;DHT22;25061;51.954;6.996;2022-07-23T00:07:52;15.90;99.90
39345;DHT22;25061;51.954;6.996;2022-07-23T00:10:17;16.10;99.90
39345;DHT22;25061;51.954;6.996;2022-07-23T00:12:43;16.40;99.90
39345;DHT22;25061;51.954;6.996;2022-07-23T00:15:09;16.70;99.90
39345;DHT22;25061;51.954;6.996;2022-07-23T00:17:34;16.40;99.90
39345;DHT22;25061;51.954;6.996;2022-07-23T00:20:01;16.20;99.90
39345;DHT22;25061;51.954;6.996;2022-07-23T00:22:26;16.10;99.90
39345;DHT22;25061;51.954;6.996;2022-07-23T00:24:54;15.90;99.90
39345;DHT22;25061;51.954;6.996;2022-07-23T00:27:20;16.00;99.90
39345;DHT22;25061;51.954;6.996;2022-07-23T00:29:45;16.20;99.90
39345;DHT22;25061;51.954;6.996;2022-07-23T00:32:11;16.10;99.90
39345;DHT22;25061;51.954;6.996;2022-07-23T00:34:36;16.20;99.90
39345;DHT22;25061;51.954;6.996;2022-07-23T00:37:02;16.40;99.90
39345;DHT22;25061;51.954;6.996;2022-07-23T00:39:28;16.30;99.90
39345;DHT22;25061;51.954;6.996;2022-07-23T00:41:53;16.30;99.90
39345;DHT22;25061;51.954;6.996;2022-07-23T00:44:24;16.40;99.90
39345;DHT22;25061;51.954;6.996;2022-07-23T00:46:56;16.50;99.90
39345;DHT22;25061;51.954;6.996;2022-07-23T00:49:24;16.40;99.90
39345;DHT22;25061;51.954;6.996;2022-07-23T00:51:51;16.10;99.90
39345;DHT22;25061;51.954;6.996;2022-07-23T00:54:17;15.90;99.90
39345;DHT22;25061;51.954;6.996;2022-07-23T00:56:45;16.10;99.90
39345;DHT22;25061;51.954;6.996;2022-07-23T00:59:11;16.30;99.90
39345;DHT22;25061;51.954;6.996;2022-07-23T01:01:37;16.30;99.90
39345;DHT22;25061;51.954;6.996;2022-07-23T01:04:03;16.20;99.90
39345;DHT22;25061;51.954;6.996;2022-07-23T01:06:31;16.00;99.90
39345;DHT22;25061;51.954;6.996;2022-07-23T01:08:59;16.00;99.90
39345;DHT22;25061;51.954;6.996;2022-07-23T01:11:24;15.90;99.90
39345;DHT22;25061;51.954;6.996;2022-07-23T01:13:50;15.90;99.90
39345;DHT22;25061;51.954;6.996;2022-07-23T01:16:15;15.80;99.90
39345;DHT22;25061;51.954;6.996;2022-07-23T01:18:41;15.70;99.90
39345;DHT22;25061;51.954;6.996;2022-07-23T01:21:08;15.70;99.90
39345;DHT22;25061;51.954;6.996;2022-07-23T01:23:36;16.10;99.90
39345;DHT22;25061;51.954;6.996;2022-07-23T01:26:01;16.20;99.90
39345;DHT22;25061;51.954;6.996;2022-07-23T01:28:27;16.10;99.90
39345;DHT22;25061;51.954;6.996;2022-07-23T01:30:52;15.90;99.90
39345;DHT22;25061;51.954;6.996;2022-07-23T01:33:18;15.70;99.90
39345;DHT22;25061;51.954;6.996;2022-07-23T01:35:43;16.00;99.90
39345;DHT22;25061;51.954;6.996;2022-07-23T01:38:09;15.60;99.90
39345;DHT22;25061;51.954;6.996;2022-07-23T01:40:34;15.50;99.90
39345;DHT22;25061;51.954;6.996;2022-07-23T01:43:00;15.30;99.90
39345;DHT22;25061;51.954;6.996;2022-07-23T01:45:25;15.30;99.90
39345;DHT22;25061;51.954;6.996;2022-07-23T01:47:51;15.40;99.90
39345;DHT22;25061;51.954;6.996;2022-07-23T01:50:16;15.70;99.90
39345;DHT22;25061;51.954;6.996;2022-07-23T01:52:42;15.30;99.90
39345;DHT22;25061;51.954;6.996;2022-07-23T01:55:08;15.00;99.90
39345;DHT22;25061;51.954;6.996;2022-07-23T01:57:34;15.00;99.90
39345;DHT22;25061;51.954;6.996;2022-07-23T01:59:59;14.80;99.90
39345;DHT22;25061;51.954;6.996;2022-07-23T02:02:25;14.70;99.90
39345;DHT22;25061;51.954;6.996;2022-07-23T02:04:50;14.70;99.90
39345;DHT22;25061;51.954;6.996;2022-07-23T02:07:16;14.60;99.90
39345;DHT22;25061;51.954;6.996;2022-07-23T02:09:42;14.40;99.90
39345;DHT22;25061;51.954;6.996;2022-07-23T02:12:07;14.40;99.90
39345;DHT22;25061;51.954;6.996;2022-07-23T02:14:33;14.40;99.90
39345;DHT22;25061;51.954;6.996;2022-07-23T02:16:59;14.30;99.90
39345;DHT22;25061;51.954;6.996;2022-07-23T02:19:24;14.30;99.90
39345;DHT22;25061;51.954;6.996;2022-07-23T02:21:50;14.20;99.90
39345;DHT22;25061;51.954;6.996;2022-07-23T02:24:16;14.10;99.90
39345;DHT22;25061;51.954;6.996;2022-07-23T02:26:42;14.10;99.90
39345;DHT22;25061;51.954;6.996;2022-07-23T02:29:08;14.10;99.90
39345;DHT22;25061;51.954;6.996;2022-07-23T02:31:34;14.10;99.90
39345;DHT22;25061;51.954;6.996;2022-07-23T02:34:00;14.10;99.90
39345;DHT22;25061;51.954;6.996;2022-07-23T02:36:27;14.00;99.90
39345;DHT22;25061;51.954;6.996;2022-07-23T02:38:52;14.00;99.90
39345;DHT22;25061;51.954;6.996;2022-07-23T02:41:19;14.00;99.90
39345;DHT22;25061;51.954;6.996;2022-07-23T02:43:45;14.00;99.90
39345;DHT22;25061;51.954;6.996;2022-07-23T02:46:10;14.10;99.90
39345;DHT22;25061;51.954;6.996;2022-07-23T02:48:36;14.10;99.90
39345;DHT22;25061;51.954;6.996;2022-07-23T02:51:01;13.90;99.90
39345;DHT22;25061;51.954;6.996;2022-07-23T02:53:27;13.70;99.90
39345;DHT22;25061;51.954;6.996;2022-07-23T02:55:52;13.80;99.90
39345;DHT22;25061;51.954;6.996;2022-07-23T02:58:18;13.90;99.90
39345;DHT22;25061;51.954;6.996;2022-07-23T03:00:44;13.70;99.90
39345;DHT22;25061;51.954;6.996;2022-07-23T03:03:09;13.70;99.90
39345;DHT22;25061;51.954;6.996;2022-07-23T03:05:35;13.90;99.90
39345;DHT22;25061;51.954;6.996;2022-07-23T03:08:01;14.10;99.90
39345;DHT22;25061;51.954;6.996;2022-07-23T03:10:26;14.00;99.90
39345;DHT22;25061;51.954;6.996;2022-07-23T03:12:52;13.90;99.90
39345;DHT22;25061;51.954;6.996;2022-07-23T03:15:18;13.80;99.90
39345;DHT22;25061;51.954;6.996;2022-07-23T03:17:43;13.70;99.90
39345;DHT22;25061;51.954;6.996;2022-07-23T03:20:09;13.70;99.90
39345;DHT22;25061;51.954;6.996;2022-07-23T03:22:35;13.80;99.90
39345;DHT22;25061;51.954;6.996;2022-07-23T03:25:01;14.00;99.90
39345;DHT22;25061;51.954;6.996;2022-07-23T03:27:28;14.00;99.90
39345;DHT22;25061;51.954;6.996;2022-07-23T03:29:56;14.00;99.90
39345;DHT22;25061;51.954;6.996;2022-07-23T03:32:23;14.00;99.90
39345;DHT22;25061;51.954;6.996;2022-07-23T03:34:49;14.00;99.90
39345;DHT22;25061;51.954;6.996;2022-07-23T03:37:15;13.90;99.90
39345;DHT22;25061;51.954;6.996;2022-07-23T03:39:41;13.90;99.90
39345;DHT22;25061;51.954;6.996;2022-07-23T03:42:07;13.80;99.90
39345;DHT22;25061;51.954;6.996;2022-07-23T03:44:32;13.70;99.90
39345;DHT22;25061;51.954;6.996;2022-07-23T03:46:58;13.70;99.90
39345;DHT22;25061;51.954;6.996;2022-07-23T03:49:24;13.70;99.90
39345;DHT22;25061;51.954;6.996;2022-07-23T03:51:49;13.80;99.90
39345;DHT22;25061;51.954;6.996;2022-07-23T03:54:15;13.80;99.90
39345;DHT22;25061;51.954;6.996;2022-07-23T03:56:41;13.70;99.90
39345;DHT22;25061;51.954;6.996;2022-07-23T03:59:08;13.80;99.90
39345;DHT22;25061;51.954;6.996;2022-07-23T04:01:33;13.70;99.90
39345;DHT22;25061;51.954;6.996;2022-07-23T04:03:59;13.80;99.90
39345;DHT22;25061;51.954;6.996;2022-07-23T04:06:25;13.70;99.90
39345;DHT22;25061;51.954;6.996;2022-07-23T04:08:50;13.80;99.90
39345;DHT22;25061;51.954;6.996;2022-07-23T04:11:16;13.80;99.90
39345;DHT22;25061;51.954;6.996;2022-07-23T04:13:41;13.70;99.90
39345;DHT22;25061;51.954;6.996;2022-07-23T04:16:07;13.60;99.90
39345;DHT22;25061;51.954;6.996;2022-07-23T04:18:33;13.60;99.90
39345;DHT22;25061;51.954;6.996;2022-07-23T04:20:58;13.70;99.90
39345;DHT22;25061;51.954;6.996;2022-07-23T04:23:24;13.70;99.90
39345;DHT22;25061;51.954;6.996;2022-07-23T04:25:49;13.80;99.90
39345;DHT22;25061;51.954;6.996;2022-07-23T04:28:15;14.00;99.90
39345;DHT22;25061;51.954;6.996;2022-07-23T04:30:41;14.10;99.90
39345;DHT22;25061;51.954;6.996;2022-07-23T04:33:06;14.10;99.90
39345;DHT22;25061;51.954;6.996;2022-07-23T04:35:35;14.20;99.90
39345;DHT22;25061;51.954;6.996;2022-07-23T04:38:02;14.30;99.90
39345;DHT22;25061;51.954;6.996;2022-07-23T04:40:28;14.20;99.90
39345;DHT22;25061;51.954;6.996;2022-07-23T04:42:54;14.30;99.90
39345;DHT22;25061;51.954;6.996;2022-07-23T04:45:20;14.30;99.90
39345;DHT22;25061;51.954;6.996;2022-07-23T04:47:45;14.40;99.90
39345;DHT22;25061;51.954;6.996;2022-07-23T04:50:11;14.60;99.90
39345;DHT22;25061;51.954;6.996;2022-07-23T04:52:37;14.60;99.90
39345;DHT22;25061;51.954;6.996;2022-07-23T04:55:03;14.70;99.90
39345;DHT22;25061;51.954;6.996;2022-07-23T04:57:29;14.80;99.90
39345;DHT22;25061;51.954;6.996;2022-07-23T04:59:55;14.80;99.90
39345;DHT22;25061;51.954;6.996;2022-07-23T05:02:20;14.90;99.90
39345;DHT22;25061;51.954;6.996;2022-07-23T05:04:46;15.00;99.90
39345;DHT22;25061;51.954;6.996;2022-07-23T05:07:11;15.20;99.90
39345;DHT22;25061;51.954;6.996;2022-07-23T05:09:37;15.40;99.90
39345;DHT22;25061;51.954;6.996;2022-07-23T05:12:02;15.60;99.90
39345;DHT22;25061;51.954;6.996;2022-07-23T05:14:28;15.60;99.90
39345;DHT22;25061;51.954;6.996;2022-07-23T05:16:54;15.80;99.90
39345;DHT22;25061;51.954;6.996;2022-07-23T05:19:19;16.00;99.90
39345;DHT22;25061;51.954;6.996;2022-07-23T05:21:45;16.40;99.90
39345;DHT22;25061;51.954;6.996;2022-07-23T05:24:11;16.80;99.90
39345;DHT22;25061;51.954;6.996;2022-07-23T05:26:36;17.00;99.90
39345;DHT22;25061;51.954;6.996;2022-07-23T05:29:02;17.20;99.90
39345;DHT22;25061;51.954;6.996;2022-07-23T05:31:27;17.00;99.90
39345;DHT22;25061;51.954;6.996;2022-07-23T05:33:53;17.20;99.90
39345;DHT22;25061;51.954;6.996;2022-07-23T05:36:19;17.20;99.90
39345;DHT22;25061;51.954;6.996;2022-07-23T05:38:45;17.40;99.90
39345;DHT22;25061;51.954;6.996;2022-07-23T05:41:11;17.50;99.90
39345;DHT22;25061;51.954;6.996;2022-07-23T05:43:36;17.60;99.90
39345;DHT22;25061;51.954;6.996;2022-07-23T05:46:02;17.40;99.90
39345;DHT22;25061;51.954;6.996;2022-07-23T05:48:27;17.30;99.90
39345;DHT22;25061;51.954;6.996;2022-07-23T05:50:53;17.70;99.90
39345;DHT22;25061;51.954;6.996;2022-07-23T05:53:18;17.70;99.90
39345;DHT22;25061;51.954;6.996;2022-07-23T05:55:44;17.80;99.90
39345;DHT22;25061;51.954;6.996;2022-07-23T05:58:09;18.20;99.90
39345;DHT22;25061;51.954;6.996;2022-07-23T06:00:35;18.50;99.90
39345;DHT22;25061;51.954;6.996;2022-07-23T06:03:01;18.20;99.90
39345;DHT22;25061;51.954;6.996;2022-07-23T06:05:26;18.00;99.90
39345;DHT22;25061;51.954;6.996;2022-07-23T06:07:52;18.50;99.90
39345;DHT22;25061;51.954;6.996;2022-07-23T06:10:18;19.30;99.90
39345;DHT22;25061;51.954;6.996;2022-07-23T06:12:44;19.50;99.90
39345;DHT22;25061;51.954;6.996;2022-07-23T06:15:10;19.30;99.90
39345;DHT22;25061;51.954;6.996;2022-07-23T06:17:36;19.70;99.90
39345;DHT22;25061;51.954;6.996;2022-07-23T06:20:05;20.10;99.90
39345;DHT22;25061;51.954;6.996;2022-07-23T06:22:31;20.00;99.90
39345;DHT22;25061;51.954;6.996;2022-07-23T06:24:56;19.90;99.90
39345;DHT22;25061;51.954;6.996;2022-07-23T06:27:22;19.90;99.90
39345;DHT22;25061;51.954;6.996;2022-07-23T06:29:48;20.30;99.90
39345;DHT22;25061;51.954;6.996;2022-07-23T06:32:13;20.30;99.90
39345;DHT22;25061;51.954;6.996;2022-07-23T06:34:39;20.70;99.90
39345;DHT22;25061;51.954;6.996;2022-07-23T06:37:04;21.00;99.90
39345;DHT22;25061;51.954;6.996;2022-07-23T06:39:30;21.20;99.90
39345;DHT22;25061;51.954;6.996;2022-07-23T06:41:56;21.00;99.90
39345;DHT22;25061;51.954;6.996;2022-07-23T06:44:21;21.20;99.90
39345;DHT22;25061;51.954;6.996;2022-07-23T06:46:47;21.20;99.90
39345;DHT22;25061;51.954;6.996;2022-07-23T06:49:12;21.60;99.90
39345;DHT22;25061;51.954;6.996;2022-07-23T06:51:38;21.90;99.90
39345;DHT22;25061;51.954;6.996;2022-07-23T06:54:04;22.00;99.90
39345;DHT22;25061;51.954;6.996;2022-07-23T06:56:29;22.60;99.90
39345;DHT22;25061;51.954;6.996;2022-07-23T06:58:55;22.00;99.90
39345;DHT22;25061;51.954;6.996;2022-07-23T07:01:20;22.50;99.90
39345;DHT22;25061;51.954;6.996;2022-07-23T07:03:46;23.10;99.90
39345;DHT22;25061;51.954;6.996;2022-07-23T07:06:12;23.10;99.90
39345;DHT22;25061;51.954;6.996;2022-07-23T07:08:38;23.30;99.90
39345;DHT22;25061;51.954;6.996;2022-07-23T07:11:04;23.80;99.90
39345;DHT22;25061;51.954;6.996;2022-07-23T07:13:29;24.20;99.90
39345;DHT22;25061;51.954;6.996;2022-07-23T07:15:55;24.60;99.90
39345;DHT22;25061;51.954;6.996;2022-07-23T07:18:20;24.90;99.90
39345;DHT22;25061;51.954;6.996;2022-07-23T07:20:46;24.10;99.90
39345;DHT22;25061;51.954;6.996;2022-07-23T07:23:12;24.00;99.90
39345;DHT22;25061;51.954;6.996;2022-07-23T07:25:38;24.40;99.90
39345;DHT22;25061;51.954;6.996;2022-07-23T07:28:03;24.40;99.90
39345;DHT22;25061;51.954;6.996;2022-07-23T07:30:29;23.90;99.90
39345;DHT22;25061;51.954;6.996;2022-07-23T07:32:54;23.70;99.90
39345;DHT22;25061;51.954;6.996;2022-07-23T07:35:20;24.20;99.90
39345;DHT22;25061;51.954;6.996;2022-07-23T07:37:46;24.60;99.90
39345;DHT22;25061;51.954;6.996;2022-07-23T07:40:12;25.30;99.90
39345;DHT22;25061;51.954;6.996;2022-07-23T07:42:48;25.10;99.90
39345;DHT22;25061;51.954;6.996;2022-07-23T07:45:14;24.80;99.90
39345;DHT22;25061;51.954;6.996;2022-07-23T07:47:40;24.30;99.90
39345;DHT22;25061;51.954;6.996;2022-07-23T07:50:07;24.30;99.90
39345;DHT22;25061;51.954;6.996;2022-07-23T07:52:34;24.50;99.90
39345;DHT22;25061;51.954;6.996;2022-07-23T07:55:02;24.50;99.90
39345;DHT22;25061;51.954;6.996;2022-07-23T07:57:28;24.40;99.90
39345;DHT22;25061;51.954;6.996;2022-07-23T07:59:54;24.90;99.90
39345;DHT22;25061;51.954;6.996;2022-07-23T08:02:19;25.40;99.90
39345;DHT22;25061;51.954;6.996;2022-07-23T08:04:45;25.50;99.90
39345;DHT22;25061;51.954;6.996;2022-07-23T08:07:10;25.60;99.90
39345;DHT22;25061;51.954;6.996;2022-07-23T08:09:36;26.00;99.30
39345;DHT22;25061;51.954;6.996;2022-07-23T08:12:01;25.00;99.60
39345;DHT22;25061;51.954;6.996;2022-07-23T08:14:27;23.90;99.90
39345;DHT22;25061;51.954;6.996;2022-07-23T08:16:52;24.20;99.90
39345;DHT22;25061;51.954;6.996;2022-07-23T08:19:18;24.20;99.90
39345;DHT22;25061;51.954;6.996;2022-07-23T08:21:43;24.80;99.90
39345;DHT22;25061;51.954;6.996;2022-07-23T08:24:09;24.00;99.90
39345;DHT22;25061;51.954;6.996;2022-07-23T08:26:34;23.20;99.90
39345;DHT22;25061;51.954;6.996;2022-07-23T08:29:00;22.40;99.90
39345;DHT22;25061;51.954;6.996;2022-07-23T08:31:25;22.60;99.90
39345;DHT22;25061;51.954;6.996;2022-07-23T08:33:51;23.00;99.90
39345;DHT22;25061;51.954;6.996;2022-07-23T08:36:17;23.70;99.90
39345;DHT22;25061;51.954;6.996;2022-07-23T08:38:43;23.70;99.90
39345;DHT22;25061;51.954;6.996;2022-07-23T08:41:09;24.30;99.90
39345;DHT22;25061;51.954;6.996;2022-07-23T08:43:35;24.80;99.90
39345;DHT22;25061;51.954;6.996;2022-07-23T08:46:01;24.80;99.50
39345;DHT22;25061;51.954;6.996;2022-07-23T08:48:30;25.00;99.60
39345;DHT22;25061;51.954;6.996;2022-07-23T08:50:59;25.20;99.20
39345;DHT22;25061;51.954;6.996;2022-07-23T08:53:26;25.00;99.60
39345;DHT22;25061;51.954;6.996;2022-07-23T08:55:56;25.30;99.80
39345;DHT22;25061;51.954;6.996;2022-07-23T08:58:23;25.60;99.20
39345;DHT22;25061;51.954;6.996;2022-07-23T09:00:48;25.40;99.00
39345;DHT22;25061;51.954;6.996;2022-07-23T09:03:24;24.60;99.90
39345;DHT22;25061;51.954;6.996;2022-07-23T09:05:51;24.60;99.80
39345;DHT22;25061;51.954;6.996;2022-07-23T09:08:19;24.60;99.90
39345;DHT22;25061;51.954;6.996;2022-07-23T09:10:55;25.40;99.40
39345;DHT22;25061;51.954;6.996;2022-07-23T09:13:26;26.40;98.90
39345;DHT22;25061;51.954;6.996;2022-07-23T09:15:53;26.70;97.70
39345;DHT22;25061;51.954;6.996;2022-07-23T09:18:20;26.10;98.00
39345;DHT22;25061;51.954;6.996;2022-07-23T09:21:12;25.80;97.90
39345;DHT22;25061;51.954;6.996;2022-07-23T09:23:47;25.50;98.10
39345;DHT22;25061;51.954;6.996;2022-07-23T09:26:40;25.90;98.40
39345;DHT22;25061;51.954;6.996;2022-07-23T09:29:17;26.40;97.80
39345;DHT22;25061;51.954;6.996;2022-07-23T09:31:52;26.40;97.80
39345;DHT22;25061;51.954;6.996;2022-07-23T09:34:24;26.70;97.20
39345;DHT22;25061;51.954;6.996;2022-07-23T09:36:56;26.60;97.50
39345;DHT22;25061;51.954;6.996;2022-07-23T09:39:27;26.40;97.40
39345;DHT22;25061;51.954;6.996;2022-07-23T09:41:53;26.50;97.50
39345;DHT22;25061;51.954;6.996;2022-07-23T09:44:20;27.10;97.20
39345;DHT22;25061;51.954;6.996;2022-07-23T09:46:48;26.70;96.20
39345;DHT22;25061;51.954;6.996;2022-07-23T09:49:19;26.60;96.60
39345;DHT22;25061;51.954;6.996;2022-07-23T09:51:52;26.10;96.20
39345;DHT22;25061;51.954;6.996;2022-07-23T09:54:28;26.40;97.40
39345;DHT22;25061;51.954;6.996;2022-07-23T09:56:57;26.50;96.30
39345;DHT22;25061;51.954;6.996;2022-07-23T09:59:30;26.60;95.80
39345;DHT22;25061;51.954;6.996;2022-07-23T10:01:58;26.30;95.80
39345;DHT22;25061;51.954;6.996;2022-07-23T10:04:26;26.20;96.70
39345;DHT22;25061;51.954;6.996;2022-07-23T10:06:54;26.10;96.60
39345;DHT22;25061;51.954;6.996;2022-07-23T10:11:56;26.00;95.90
39345;DHT22;25061;51.954;6.996;2022-07-23T10:14:43;25.30;96.30
39345;DHT22;25061;51.954;6.996;2022-07-23T10:17:09;25.00;96.60
39345;DHT22;25061;51.954;6.996;2022-07-23T10:19:34;25.20;97.60
39345;DHT22;25061;51.954;6.996;2022-07-23T10:22:03;24.80;98.80
39345;DHT22;25061;51.954;6.996;2022-07-23T10:27:43;23.80;99.00
39345;DHT22;25061;51.954;6.996;2022-07-23T10:33:09;24.90;97.60
39345;DHT22;25061;51.954;6.996;2022-07-23T10:36:11;25.10;97.70
39345;DHT22;25061;51.954;6.996;2022-07-23T10:39:11;25.60;98.40
39345;DHT22;25061;51.954;6.996;2022-07-23T10:41:40;25.30;97.70
39345;DHT22;25061;51.954;6.996;2022-07-23T10:44:07;24.80;97.50
39345;DHT22;25061;51.954;6.996;2022-07-23T10:46:33;25.40;96.90
39345;DHT22;25061;51.954;6.996;2022-07-23T10:49:30;25.60;97.40
39345;DHT22;25061;51.954;6.996;2022-07-23T10:54:44;25.70;97.40
39345;DHT22;25061;51.954;6.996;2022-07-23T10:57:11;25.90;97.40
39345;DHT22;25061;51.954;6.996;2022-07-23T11:02:34;25.70;97.40
39345;DHT22;25061;51.954;6.996;2022-07-23T11:07:30;25.30;97.60
39345;DHT22;25061;51.954;6.996;2022-07-23T11:09:55;25.30;97.40
39345;DHT22;25061;51.954;6.996;2022-07-23T11:17:28;25.00;98.30
39345;DHT22;25061;51.954;6.996;2022-07-23T11:22:48;25.80;97.60
39345;DHT22;25061;51.954;6.996;2022-07-23T11:25:35;25.20;97.60
39345;DHT22;25061;51.954;6.996;2022-07-23T11:28:18;24.20;98.70
39345;DHT22;25061;51.954;6.996;2022-07-23T11:30:46;24.70;98.60
39345;DHT22;25061;51.954;6.996;2022-07-23T11:35:44;25.20;98.60
39345;DHT22;25061;51.954;6.996;2022-07-23T11:38:21;25.50;97.60
39345;DHT22;25061;51.954;6.996;2022-07-23T11:40:52;25.00;97.70
39345;DHT22;25061;51.954;6.996;2022-07-23T11:43:20;25.10;97.50
39345;DHT22;25061;51.954;6.996;2022-07-23T11:45:48;25.10;97.90
39345;DHT22;25061;51.954;6.996;2022-07-23T11:48:21;25.20;97.30
39345;DHT22;25061;51.954;6.996;2022-07-23T11:50:47;24.80;97.10
39345;DHT22;25061;51.954;6.996;2022-07-23T11:53:21;24.50;97.80
39345;DHT22;25061;51.954;6.996;2022-07-23T11:55:47;24.60;98.10
39345;DHT22;25061;51.954;6.996;2022-07-23T11:58:13;24.40;98.40
39345;DHT22;25061;51.954;6.996;2022-07-23T12:00:41;24.70;98.50
39345;DHT22;25061;51.954;6.996;2022-07-23T12:03:07;24.70;98.30
39345;DHT22;25061;51.954;6.996;2022-07-23T12:05:35;24.80;97.80
39345;DHT22;25061;51.954;6.996;2022-07-23T12:08:04;25.00;98.70
39345;DHT22;25061;51.954;6.996;2022-07-23T12:13:05;24.70;98.50
39345;DHT22;25061;51.954;6.996;2022-07-23T12:15:34;24.70;98.80
39345;DHT22;25061;51.954;6.996;2022-07-23T12:18:03;24.70;98.30
39345;DHT22;25061;51.954;6.996;2022-07-23T12:20:32;24.80;97.90
39345;DHT22;25061;51.954;6.996;2022-07-23T12:23:03;24.80;98.20
39345;DHT22;25061;51.954;6.996;2022-07-23T12:25:34;24.90;98.30
39345;DHT22;25061;51.954;6.996;2022-07-23T12:28:04;24.20;98.60
39345;DHT22;25061;51.954;6.996;2022-07-23T12:30:37;24.40;98.90
39345;DHT22;25061;51.954;6.996;2022-07-23T12:33:03;24.30;99.40
39345;DHT22;25061;51.954;6.996;2022-07-23T12:35:40;24.40;99.00
39345;DHT22;25061;51.954;6.996;2022-07-23T12:38:12;24.40;98.60
39345;DHT22;25061;51.954;6.996;2022-07-23T12:43:40;24.40;99.00
39345;DHT22;25061;51.954;6.996;2022-07-23T12:48:51;24.50;98.70
39345;DHT22;25061;51.954;6.996;2022-07-23T12:51:23;24.50;98.50
39345;DHT22;25061;51.954;6.996;2022-07-23T12:53:51;24.40;98.30
39345;DHT22;25061;51.954;6.996;2022-07-23T12:58:57;24.50;98.50
39345;DHT22;25061;51.954;6.996;2022-07-23T13:01:25;24.50;99.60
39345;DHT22;25061;51.954;6.996;2022-07-23T13:03:58;24.60;99.30
39345;DHT22;25061;51.954;6.996;2022-07-23T13:06:33;24.60;99.00
39345;DHT22;25061;51.954;6.996;2022-07-23T13:08:59;24.50;99.10
39345;DHT22;25061;51.954;6.996;2022-07-23T13:11:25;24.60;99.10
39345;DHT22;25061;51.954;6.996;2022-07-23T13:13:51;24.60;99.60
39345;DHT22;25061;51.954;6.996;2022-07-23T13:16:17;24.40;98.90
39345;DHT22;25061;51.954;6.996;2022-07-23T13:18:42;24.40;98.60
39345;DHT22;25061;51.954;6.996;2022-07-23T13:21:08;24.20;98.40
39345;DHT22;25061;51.954;6.996;2022-07-23T13:23:34;23.90;98.60
39345;DHT22;25061;51.954;6.996;2022-07-23T13:25:59;23.70;99.10
39345;DHT22;25061;51.954;6.996;2022-07-23T13:28:25;23.90;98.50
39345;DHT22;25061;51.954;6.996;2022-07-23T13:30:51;23.70;98.50
39345;DHT22;25061;51.954;6.996;2022-07-23T13:33:22;23.20;99.90
39345;DHT22;25061;51.954;6.996;2022-07-23T13:35:49;23.50;99.10
39345;DHT22;25061;51.954;6.996;2022-07-23T13:38:15;23.30;99.20
39345;DHT22;25061;51.954;6.996;2022-07-23T13:40:43;23.50;99.80
39345;DHT22;25061;51.954;6.996;2022-07-23T13:43:11;23.70;99.70
39345;DHT22;25061;51.954;6.996;2022-07-23T13:45:37;23.80;99.90
39345;DHT22;25061;51.954;6.996;2022-07-23T13:48:03;24.00;99.40
39345;DHT22;25061;51.954;6.996;2022-07-23T13:50:30;23.90;98.70
39345;DHT22;25061;51.954;6.996;2022-07-23T13:52:55;24.00;99.10
39345;DHT22;25061;51.954;6.996;2022-07-23T13:55:21;23.80;98.90
39345;DHT22;25061;51.954;6.996;2022-07-23T13:57:47;23.80;98.70
39345;DHT22;25061;51.954;6.996;2022-07-23T14:00:12;24.00;99.10
39345;DHT22;25061;51.954;6.996;2022-07-23T14:02:39;24.10;98.70
39345;DHT22;25061;51.954;6.996;2022-07-23T14:05:07;24.10;98.90
39345;DHT22;25061;51.954;6.996;2022-07-23T14:07:35;24.20;98.90
39345;DHT22;25061;51.954;6.996;2022-07-23T14:10:02;24.10;98.50
39345;DHT22;25061;51.954;6.996;2022-07-23T14:12:27;24.00;99.10
39345;DHT22;25061;51.954;6.996;2022-07-23T14:14:53;24.00;99.30
39345;DHT22;25061;51.954;6.996;2022-07-23T14:17:19;24.00;99.10
39345;DHT22;25061;51.954;6.996;2022-07-23T14:19:44;23.80;99.00
39345;DHT22;25061;51.954;6.996;2022-07-23T14:22:10;24.00;98.70
39345;DHT22;25061;51.954;6.996;2022-07-23T14:24:36;24.10;98.60
39345;DHT22;25061;51.954;6.996;2022-07-23T14:27:03;24.20;98.80
39345;DHT22;25061;51.954;6.996;2022-07-23T14:29:29;24.30;98.90
39345;DHT22;25061;51.954;6.996;2022-07-23T14:31:55;24.40;98.20
39345;DHT22;25061;51.954;6.996;2022-07-23T14:34:21;24.30;99.00
39345;DHT22;25061;51.954;6.996;2022-07-23T14:36:47;24.30;98.50
39345;DHT22;25061;51.954;6.996;2022-07-23T14:39:12;24.30;98.00
39345;DHT22;25061;51.954;6.996;2022-07-23T14:41:39;24.20;98.90
39345;DHT22;25061;51.954;6.996;2022-07-23T14:44:05;24.20;99.10
39345;DHT22;25061;51.954;6.996;2022-07-23T14:46:30;24.40;98.70
39345;DHT22;25061;51.954;6.996;2022-07-23T14:48:56;24.50;98.60
39345;DHT22;25061;51.954;6.996;2022-07-23T14:51:22;24.50;99.00
39345;DHT22;25061;51.954;6.996;2022-07-23T14:53:48;24.60;98.30
39345;DHT22;25061;51.954;6.996;2022-07-23T14:56:14;24.50;98.30
39345;DHT22;25061;51.954;6.996;2022-07-23T14:58:40;24.60;98.70
39345;DHT22;25061;51.954;6.996;2022-07-23T15:01:06;24.70;98.40
39345;DHT22;25061;51.954;6.996;2022-07-23T15:03:32;24.60;98.50
39345;DHT22;25061;51.954;6.996;2022-07-23T15:05:58;24.80;98.60
39345;DHT22;25061;51.954;6.996;2022-07-23T15:08:24;24.80;98.70
39345;DHT22;25061;51.954;6.996;2022-07-23T15:10:49;24.80;98.40
39345;DHT22;25061;51.954;6.996;2022-07-23T15:13:15;24.80;98.70
39345;DHT22;25061;51.954;6.996;2022-07-23T15:15:41;24.90;98.00
39345;DHT22;25061;51.954;6.996;2022-07-23T15:18:06;24.80;97.90
39345;DHT22;25061;51.954;6.996;2022-07-23T15:20:32;24.80;97.40
39345;DHT22;25061;51.954;6.996;2022-07-23T15:22:57;24.40;98.20
39345;DHT22;25061;51.954;6.996;2022-07-23T15:25:23;24.80;98.80
39345;DHT22;25061;51.954;6.996;2022-07-23T15:27:49;24.90;98.70
39345;DHT22;25061;51.954;6.996;2022-07-23T15:30:14;24.90;98.00
39345;DHT22;25061;51.954;6.996;2022-07-23T15:32:40;25.00;98.50
39345;DHT22;25061;51.954;6.996;2022-07-23T15:35:06;24.90;98.10
39345;DHT22;25061;51.954;6.996;2022-07-23T15:37:33;24.80;98.60
39345;DHT22;25061;51.954;6.996;2022-07-23T15:39:59;24.80;98.90
39345;DHT22;25061;51.954;6.996;2022-07-23T15:42:25;24.60;98.70
39345;DHT22;25061;51.954;6.996;2022-07-23T15:44:50;24.30;99.40
39345;DHT22;25061;51.954;6.996;2022-07-23T15:47:17;24.20;99.20
39345;DHT22;25061;51.954;6.996;2022-07-23T15:49:44;24.30;98.90
39345;DHT22;25061;51.954;6.996;2022-07-23T15:52:10;24.40;99.50
39345;DHT22;25061;51.954;6.996;2022-07-23T15:54:36;24.30;99.50
39345;DHT22;25061;51.954;6.996;2022-07-23T15:57:02;24.30;99.30
39345;DHT22;25061;51.954;6.996;2022-07-23T15:59:28;24.40;99.00
39345;DHT22;25061;51.954;6.996;2022-07-23T16:01:54;24.20;99.60
39345;DHT22;25061;51.954;6.996;2022-07-23T16:04:19;24.00;99.20
39345;DHT22;25061;51.954;6.996;2022-07-23T16:06:45;24.10;99.30